Time;durP1;ratioP1;P1;durP2;ratioP2;P2;SDS_P1;SDS_P2;PMS_P1;PMS_P2;Temp;Humidity;BMP_temperature;BMP_pressure;BME280_temperature;BME280_humidity;BME280_pressure;Samples;Min_cycle;Max_cycle;Signal;HPM_P1;HPM_P2
2020/12/02 00:01:22;;;;;;;38.75;21.45;;;7.00;94.20;;;;;;5074676;28;20033;-82
2020/12/02 00:03:57;;;;;;;43.08;23.30;;;7.00;94.30;;;;;;5037491;28;20037;-80
2020/12/02 00:06:25;;;;;;;41.85;24.02;;;7.00;94.20;;;;;;5055001;28;20471;-88
2020/12/02 00:08:59;;;;;;;38.60;22.48;;;7.00;94.30;;;;;;5039375;28;20403;-88
2020/12/02 00:11:28;;;;;;;35.10;20.40;;;7.00;94.30;;;;;;5039891;28;20029;-86
2020/12/02 00:14:01;;;;;;;39.15;22.00;;;7.00;94.30;;;;;;5037939;28;20036;-84
2020/12/02 00:16:31;;;;;;;36.63;22.27;;;7.00;94.30;;;;;;5045240;28;20033;-86
2020/12/02 00:18:59;;;;;;;39.05;22.55;;;7.00;94.20;;;;;;5038089;28;20037;-84
2020/12/02 00:21:29;;;;;;;40.40;22.77;;;6.90;94.20;;;;;;5069583;28;20491;-85
2020/12/02 00:23:56;;;;;;;44.05;25.15;;;6.90;94.30;;;;;;5050622;28;20037;-85
2020/12/02 00:26:25;;;;;;;43.42;25.25;;;6.90;94.30;;;;;;5069336;28;20431;-84
2020/12/02 00:28:52;;;;;;;47.42;25.88;;;6.90;94.40;;;;;;5053272;28;20035;-83
2020/12/02 00:31:20;;;;;;;42.95;22.80;;;6.90;94.60;;;;;;5054729;28;20387;-85
2020/12/02 00:33:47;;;;;;;37.28;21.52;;;6.90;94.50;;;;;;5052023;28;20415;-83
2020/12/02 00:36:15;;;;;;;36.40;19.90;;;6.90;94.60;;;;;;5036540;28;20029;-85
2020/12/02 00:38:42;;;;;;;34.60;19.98;;;6.90;94.60;;;;;;5055130;28;20032;-83
2020/12/02 00:41:10;;;;;;;47.10;24.13;;;6.90;94.60;;;;;;5054384;28;20040;-84
2020/12/02 00:43:37;;;;;;;35.40;19.30;;;6.90;94.60;;;;;;5053526;28;20525;-85
2020/12/02 00:46:04;;;;;;;41.60;23.15;;;6.90;94.60;;;;;;5036653;28;20693;-82
2020/12/02 00:48:33;;;;;;;34.80;20.60;;;6.90;94.60;;;;;;5051490;28;20514;-80
2020/12/02 00:51:04;;;;;;;38.00;21.08;;;6.90;94.70;;;;;;5053271;28;20029;-80
2020/12/02 00:53:33;;;;;;;33.92;18.23;;;6.80;94.70;;;;;;5023079;28;20063;-80
2020/12/02 00:56:01;;;;;;;41.58;22.02;;;6.80;94.70;;;;;;5036546;28;20041;-82
2020/12/02 00:58:53;;;;;;;36.70;21.08;;;6.80;94.70;;;;;;5053007;28;20037;-80
2020/12/02 01:01:31;;;;;;;37.83;18.80;;;6.80;94.70;;;;;;5052808;28;20037;-84
2020/12/02 01:03:58;;;;;;;44.33;23.98;;;6.80;94.70;;;;;;5052515;28;20044;-81
2020/12/02 01:06:25;;;;;;;44.00;22.25;;;6.80;94.70;;;;;;5049902;28;20482;-83
2020/12/02 01:08:52;;;;;;;40.45;23.02;;;6.80;94.70;;;;;;5052106;28;20526;-80
2020/12/02 01:11:20;;;;;;;46.28;23.88;;;6.80;94.70;;;;;;5051091;28;20040;-79
2020/12/02 01:13:52;;;;;;;49.03;26.02;;;6.80;94.70;;;;;;5064108;28;20706;-81
2020/12/02 01:16:28;;;;;;;52.60;25.92;;;6.70;94.80;;;;;;5036392;28;20032;-80
2020/12/02 01:18:56;;;;;;;38.08;21.02;;;6.70;94.80;;;;;;5068156;28;20032;-80
2020/12/02 01:21:42;;;;;;;42.00;23.05;;;6.70;94.90;;;;;;5069401;28;20045;-82
2020/12/02 01:24:14;;;;;;;36.38;19.75;;;6.70;94.90;;;;;;5050730;28;20044;-80
2020/12/02 01:27:11;;;;;;;54.38;25.67;;;6.70;94.90;;;;;;5052944;28;20032;-83
2020/12/02 01:29:39;;;;;;;49.38;24.65;;;6.70;94.90;;;;;;5055410;28;20052;-84
2020/12/02 01:32:06;;;;;;;49.08;25.85;;;6.80;95.00;;;;;;5052115;28;20032;-81
2020/12/02 01:34:32;;;;;;;51.67;26.98;;;6.80;94.90;;;;;;5050183;28;20048;-82
2020/12/02 01:37:05;;;;;;;43.08;22.23;;;6.70;94.90;;;;;;5050427;28;20411;-81
2020/12/02 01:39:46;;;;;;;50.50;25.45;;;6.70;95.00;;;;;;5032667;28;20055;-81
2020/12/02 01:42:19;;;;;;;43.67;22.80;;;6.70;94.90;;;;;;5051776;28;20037;-83
2020/12/02 01:44:47;;;;;;;42.75;21.52;;;6.70;95.00;;;;;;5066399;28;20047;-80
2020/12/02 01:47:45;;;;;;;42.38;21.60;;;6.70;95.00;;;;;;5051865;28;20040;-83
2020/12/02 01:50:28;;;;;;;40.40;21.15;;;6.70;95.00;;;;;;5069735;28;20029;-81
2020/12/02 01:53:07;;;;;;;46.53;24.05;;;6.80;95.10;;;;;;5069049;28;20391;-84
2020/12/02 01:55:41;;;;;;;49.42;24.88;;;6.80;95.10;;;;;;5067850;28;20395;-82
2020/12/02 01:58:17;;;;;;;53.83;25.65;;;6.80;95.10;;;;;;5051720;28;20040;-82
2020/12/02 02:00:53;;;;;;;46.45;22.75;;;6.80;95.30;;;;;;5036264;28;20395;-82
2020/12/02 02:03:20;;;;;;;51.33;25.73;;;6.80;95.10;;;;;;5035054;28;20039;-83
2020/12/02 02:06:01;;;;;;;44.92;22.90;;;6.80;95.00;;;;;;5018007;28;20376;-79
2020/12/02 02:08:31;;;;;;;44.90;23.67;;;6.80;95.30;;;;;;5061173;28;20498;-85
2020/12/02 02:11:01;;;;;;;43.33;22.00;;;6.80;95.00;;;;;;5051076;28;20033;-86
2020/12/02 02:13:36;;;;;;;46.58;24.45;;;6.80;95.10;;;;;;5035888;28;20398;-84
2020/12/02 02:16:24;;;;;;;42.00;22.50;;;6.80;95.00;;;;;;5055458;28;20052;-84
2020/12/02 02:18:51;;;;;;;45.15;22.73;;;6.80;95.00;;;;;;5052041;28;20533;-85
2020/12/02 02:21:21;;;;;;;44.35;23.45;;;6.80;95.00;;;;;;5039395;28;20036;-87
2020/12/02 02:23:47;;;;;;;42.60;22.05;;;6.80;95.00;;;;;;5036777;28;20399;-84
2020/12/02 02:26:14;;;;;;;43.75;21.35;;;6.80;95.10;;;;;;5051416;28;20041;-86
2020/12/02 02:28:54;;;;;;;48.17;22.77;;;6.80;95.10;;;;;;5066778;28;20051;-80
2020/12/02 02:31:25;;;;;;;48.67;25.33;;;6.90;95.10;;;;;;5033863;28;20036;-82
2020/12/02 02:33:53;;;;;;;47.85;24.75;;;6.80;95.00;;;;;;5066092;28;20048;-81
2020/12/02 02:36:26;;;;;;;39.42;20.80;;;6.80;95.00;;;;;;5050310;28;20510;-82
2020/12/02 02:38:53;;;;;;;41.47;20.98;;;6.90;95.10;;;;;;5057499;28;20051;-80
2020/12/02 02:41:22;;;;;;;46.30;23.38;;;6.80;95.10;;;;;;5051588;28;20364;-81
2020/12/02 02:43:48;;;;;;;46.08;23.25;;;6.90;95.00;;;;;;5050761;28;20055;-80
2020/12/02 02:46:15;;;;;;;39.92;20.30;;;6.90;95.10;;;;;;5051180;28;20399;-86
2020/12/02 02:48:41;;;;;;;41.08;21.38;;;6.90;95.10;;;;;;5069337;28;20040;-80
2020/12/02 02:51:08;;;;;;;49.28;25.70;;;6.90;95.10;;;;;;5033478;28;20032;-79
2020/12/02 02:53:36;;;;;;;46.83;23.05;;;6.90;95.00;;;;;;5033671;28;20041;-78
2020/12/02 02:56:03;;;;;;;109.03;66.20;;;6.80;95.00;;;;;;5039508;28;20044;-85
2020/12/02 02:58:29;;;;;;;62.72;32.40;;;6.80;95.00;;;;;;5051159;28;20052;-81
2020/12/02 03:00:59;;;;;;;49.53;27.45;;;6.80;94.90;;;;;;5051459;28;20047;-82
2020/12/02 03:03:29;;;;;;;47.63;24.38;;;6.80;95.00;;;;;;5056153;28;20033;-83
2020/12/02 03:06:01;;;;;;;39.20;20.92;;;6.80;94.90;;;;;;5062735;28;20463;-79
2020/12/02 03:08:27;;;;;;;42.58;24.00;;;6.80;95.00;;;;;;5064588;28;20055;-83
2020/12/02 03:10:57;;;;;;;43.30;22.83;;;6.80;94.90;;;;;;5034821;28;20067;-82
2020/12/02 03:13:40;;;;;;;53.92;25.65;;;6.80;95.00;;;;;;5080455;28;20052;-81
2020/12/02 03:16:45;;;;;;;39.58;19.80;;;6.70;94.90;;;;;;5061530;28;20041;-84
2020/12/02 03:19:22;;;;;;;44.20;21.98;;;6.70;95.00;;;;;;5050462;28;20040;-82
2020/12/02 03:21:51;;;;;;;36.78;19.35;;;6.70;95.00;;;;;;5050922;28;20036;-82
2020/12/02 03:24:17;;;;;;;37.83;18.90;;;6.80;95.10;;;;;;5066408;28;20503;-82
2020/12/02 03:26:47;;;;;;;40.55;21.25;;;6.70;95.10;;;;;;5071721;28;20037;-83
2020/12/02 03:29:18;;;;;;;37.30;18.67;;;6.80;95.10;;;;;;5055791;28;20036;-79
2020/12/02 03:31:45;;;;;;;40.25;20.92;;;6.80;95.00;;;;;;5053681;28;20036;-79
2020/12/02 03:34:15;;;;;;;40.40;22.00;;;6.80;95.00;;;;;;5035290;28;20045;-79
2020/12/02 03:36:42;;;;;;;45.15;23.48;;;6.80;95.00;;;;;;5051137;28;20487;-79
2020/12/02 03:39:10;;;;;;;37.33;19.65;;;6.70;95.00;;;;;;5054500;28;20041;-84
2020/12/02 03:41:38;;;;;;;37.92;18.02;;;6.80;95.00;;;;;;5037597;28;20040;-82
2020/12/02 03:44:05;;;;;;;33.60;18.15;;;6.80;95.00;;;;;;5037426;28;20037;-82
2020/12/02 03:46:31;;;;;;;43.63;23.45;;;6.80;95.30;;;;;;5071031;28;20478;-82
2020/12/02 03:48:59;;;;;;;47.22;24.55;;;6.80;95.00;;;;;;5054397;28;20040;-84
2020/12/02 03:51:25;;;;;;;47.72;23.40;;;6.80;95.00;;;;;;5038260;28;20387;-80
2020/12/02 03:53:52;;;;;;;37.42;18.90;;;6.70;95.00;;;;;;5054057;28;20056;-79
2020/12/02 03:56:19;;;;;;;58.13;27.13;;;6.70;95.00;;;;;;5069295;28;20055;-82
2020/12/02 03:58:46;;;;;;;46.97;23.42;;;6.70;95.00;;;;;;5070555;28;20036;-83
2020/12/02 04:01:14;;;;;;;55.80;27.80;;;6.70;95.00;;;;;;5072442;28;20096;-81
2020/12/02 04:03:41;;;;;;;47.20;23.38;;;6.70;95.10;;;;;;5068955;28;20035;-79
2020/12/02 04:06:09;;;;;;;50.83;25.20;;;6.70;95.10;;;;;;5068357;28;20035;-79
2020/12/02 04:08:40;;;;;;;43.80;21.90;;;6.60;95.00;;;;;;5037191;28;20044;-77
2020/12/02 04:11:08;;;;;;;44.45;22.65;;;6.60;95.10;;;;;;5038145;28;20032;-81
2020/12/02 04:13:34;;;;;;;53.35;24.27;;;6.60;95.10;;;;;;5052747;28;20851;-78
2020/12/02 04:16:02;;;;;;;47.70;21.42;;;6.60;95.10;;;;;;5052620;28;20048;-79
2020/12/02 04:18:29;;;;;;;51.10;22.02;;;6.60;95.10;;;;;;5038137;28;20043;-81
2020/12/02 04:20:56;;;;;;;40.50;18.15;;;6.60;95.20;;;;;;5064490;28;20049;-82
2020/12/02 04:23:23;;;;;;;54.58;23.48;;;6.60;95.20;;;;;;5038386;28;20048;-83
2020/12/02 04:25:49;;;;;;;89.07;28.45;;;6.70;95.20;;;;;;5053538;28;20047;-81
2020/12/02 04:28:16;;;;;;;57.53;25.35;;;6.60;95.20;;;;;;5036375;28;20491;-83
2020/12/02 04:30:46;;;;;;;49.53;22.17;;;6.60;95.20;;;;;;5059167;28;20047;-83
2020/12/02 04:33:13;;;;;;;48.22;20.13;;;6.60;95.30;;;;;;5070917;28;20048;-83
2020/12/02 04:35:40;;;;;;;55.08;24.38;;;6.60;95.40;;;;;;5051565;28;20033;-83
2020/12/02 04:38:08;;;;;;;52.10;22.25;;;6.70;95.30;;;;;;5037793;28;20045;-85
2020/12/02 04:40:40;;;;;;;43.75;20.10;;;6.60;95.20;;;;;;5054391;28;20055;-82
2020/12/02 04:43:12;;;;;;;52.10;23.17;;;6.60;95.20;;;;;;5052889;28;20064;-81
2020/12/02 04:45:39;;;;;;;54.67;23.25;;;6.60;95.20;;;;;;5058953;28;20041;-83
2020/12/02 04:48:13;;;;;;;46.72;21.23;;;6.50;95.20;;;;;;5054833;28;20041;-82
2020/12/02 04:50:40;;;;;;;58.97;25.50;;;6.50;95.30;;;;;;5070676;28;20028;-82
2020/12/02 04:53:20;;;;;;;63.22;24.23;;;6.60;95.30;;;;;;5070375;28;20041;-81
2020/12/02 04:55:49;;;;;;;68.20;27.45;;;6.50;95.20;;;;;;5035256;28;20475;-82
2020/12/02 04:58:29;;;;;;;51.13;22.55;;;6.50;95.30;;;;;;5051381;28;20033;-83
2020/12/02 05:01:19;;;;;;;55.35;22.20;;;6.50;95.30;;;;;;5051507;28;20036;-85
2020/12/02 05:03:56;;;;;;;58.42;24.83;;;6.50;95.30;;;;;;5064953;28;20036;-82
2020/12/02 05:06:26;;;;;;;58.50;23.33;;;6.50;95.30;;;;;;5038927;28;20035;-82
2020/12/02 05:09:05;;;;;;;56.15;22.25;;;6.50;95.40;;;;;;5051795;28;20047;-79
2020/12/02 05:11:32;;;;;;;55.80;21.35;;;6.50;95.30;;;;;;5051362;28;20052;-83
2020/12/02 05:14:00;;;;;;;49.10;19.92;;;6.50;95.40;;;;;;5049249;28;20060;-85
2020/12/02 05:16:27;;;;;;;49.88;20.60;;;6.60;95.50;;;;;;5035403;28;20396;-84
2020/12/02 05:19:04;;;;;;;53.22;22.15;;;6.60;95.40;;;;;;5038118;28;20487;-84
2020/12/02 05:21:40;;;;;;;69.78;31.30;;;6.60;95.40;;;;;;5067396;28;20051;-85
2020/12/02 05:24:13;;;;;;;58.22;24.10;;;6.60;95.40;;;;;;5068400;28;20043;-82
2020/12/02 05:26:43;;;;;;;87.32;38.35;;;6.60;95.40;;;;;;5069470;28;20036;-84
2020/12/02 05:29:22;;;;;;;75.13;34.45;;;6.60;95.40;;;;;;5037264;28;20118;-82
2020/12/02 05:31:49;;;;;;;45.33;21.52;;;6.70;95.40;;;;;;5053568;28;20041;-81
2020/12/02 05:34:19;;;;;;;53.85;22.52;;;6.70;95.40;;;;;;5051983;28;20040;-80
2020/12/02 05:36:52;;;;;;;55.72;22.25;;;6.60;95.40;;;;;;5070825;28;20067;-84
2020/12/02 05:39:42;;;;;;;48.47;18.70;;;6.60;95.40;;;;;;5036710;28;20040;-84
2020/12/02 05:42:21;;;;;;;49.42;19.25;;;6.60;95.40;;;;;;5040154;28;20060;-84
2020/12/02 05:44:51;;;;;;;56.05;20.50;;;6.60;95.50;;;;;;5052393;28;20040;-81
2020/12/02 05:47:20;;;;;;;46.20;17.92;;;6.70;95.50;;;;;;5031474;28;20029;-83
2020/12/02 05:49:51;;;;;;;56.30;19.60;;;6.60;95.50;;;;;;5031565;28;20040;-83
2020/12/02 05:52:37;;;;;;;50.10;20.27;;;6.70;95.50;;;;;;5065396;28;20035;-80
2020/12/02 05:55:10;;;;;;;45.72;19.52;;;6.60;95.40;;;;;;5046526;28;20037;-79
2020/12/02 05:57:53;;;;;;;45.63;19.77;;;6.60;95.40;;;;;;5048721;28;20048;-80
2020/12/02 06:00:19;;;;;;;;;;;6.60;95.40;;;;;;5034997;28;20044;-80
2020/12/02 06:02:46;;;;;;;58.50;21.35;;;6.60;95.40;;;;;;5020591;28;20588;-83
2020/12/02 06:05:13;;;;;;;54.20;18.83;;;6.50;95.50;;;;;;5052460;28;20046;-81
2020/12/02 06:07:53;;;;;;;47.78;18.38;;;6.60;95.60;;;;;;5035900;28;20054;-83
2020/12/02 06:10:43;;;;;;;52.67;20.98;;;6.50;95.50;;;;;;5052426;28;20025;-81
2020/12/02 06:13:35;;;;;;;55.80;20.13;;;6.50;95.50;;;;;;5046223;28;20037;-84
2020/12/02 06:16:01;;;;;;;61.83;22.45;;;6.60;95.50;;;;;;5068557;28;20036;-85
2020/12/02 06:18:40;;;;;;;52.53;19.77;;;6.50;95.50;;;;;;5069976;28;20047;-82
2020/12/02 06:21:18;;;;;;;56.30;21.13;;;6.40;95.50;;;;;;5064927;28;20035;-80
2020/12/02 06:23:56;;;;;;;76.70;38.25;;;6.50;95.50;;;;;;5035357;28;20047;-83
2020/12/02 06:26:34;;;;;;;62.70;26.20;;;6.40;95.50;;;;;;5034443;28;20036;-85
2020/12/02 06:29:03;;;;;;;46.53;21.23;;;6.50;95.60;;;;;;5052656;28;20037;-83
2020/12/02 06:31:30;;;;;;;51.35;19.67;;;6.50;95.60;;;;;;5018026;28;20036;-83
2020/12/02 06:33:59;;;;;;;49.88;19.05;;;6.50;95.60;;;;;;5067578;28;20049;-81
2020/12/02 06:36:30;;;;;;;42.50;17.13;;;6.50;95.60;;;;;;5067813;28;20044;-81
2020/12/02 06:39:08;;;;;;;41.45;17.65;;;6.50;95.60;;;;;;5042378;28;20029;-81
2020/12/02 06:41:43;;;;;;;51.45;18.35;;;6.60;95.70;;;;;;5070161;28;20044;-81
2020/12/02 06:44:12;;;;;;;49.05;17.75;;;6.60;95.60;;;;;;5035017;28;20487;-81
2020/12/02 06:46:54;;;;;;;59.50;17.10;;;6.50;95.70;;;;;;5069217;28;20041;-81
2020/12/02 06:49:29;;;;;;;44.97;18.57;;;6.50;95.70;;;;;;5040105;28;20063;-82
2020/12/02 06:52:01;;;;;;;42.25;16.90;;;6.60;95.70;;;;;;5050753;28;20039;-81
2020/12/02 06:54:29;;;;;;;54.05;19.88;;;6.50;95.70;;;;;;5064725;28;20049;-82
2020/12/02 06:57:07;;;;;;;51.15;19.77;;;6.50;95.60;;;;;;5068936;28;20052;-82
2020/12/02 06:59:52;;;;;;;52.03;19.23;;;6.50;95.60;;;;;;5055807;28;20028;-82
2020/12/02 07:02:36;;;;;;;42.13;18.00;;;6.50;95.60;;;;;;5044706;28;20028;-82
2020/12/02 07:05:12;;;;;;;46.53;18.80;;;6.40;95.60;;;;;;5037452;28;20044;-83
2020/12/02 07:07:39;;;;;;;38.97;15.57;;;6.40;95.60;;;;;;5072052;28;20048;-81
2020/12/02 07:10:17;;;;;;;45.00;17.52;;;6.40;95.60;;;;;;5073056;28;20047;-82
2020/12/02 07:12:44;;;;;;;51.75;18.95;;;6.40;95.70;;;;;;5040071;28;20368;-81
2020/12/02 07:15:13;;;;;;;45.60;18.92;;;6.40;95.60;;;;;;5055615;28;20037;-82
2020/12/02 07:17:41;;;;;;;38.72;16.63;;;6.40;95.70;;;;;;5072847;28;20037;-81
2020/12/02 07:20:14;;;;;;;38.10;15.85;;;6.40;95.80;;;;;;5029557;28;20041;-81
2020/12/02 07:22:49;;;;;;;46.17;18.77;;;6.40;95.70;;;;;;5039426;28;20029;-81
2020/12/02 07:25:15;;;;;;;49.75;18.52;;;6.40;95.70;;;;;;5071711;28;20053;-81
2020/12/02 07:27:45;;;;;;;45.53;17.58;;;6.40;95.70;;;;;;5070548;28;20402;-82
2020/12/02 07:30:29;;;;;;;48.15;18.77;;;6.40;95.70;;;;;;5071021;28;20043;-81
2020/12/02 07:32:55;;;;;;;42.53;17.42;;;6.40;95.70;;;;;;5038532;28;20066;-81
2020/12/02 07:35:25;;;;;;;37.75;16.30;;;6.40;95.70;;;;;;5054625;28;20044;-83
2020/12/02 07:38:07;;;;;;;33.70;14.80;;;6.40;95.60;;;;;;5056179;28;20059;-83
2020/12/02 07:40:38;;;;;;;33.67;15.37;;;6.40;95.70;;;;;;5055549;28;20519;-81
2020/12/02 07:43:11;;;;;;;36.03;15.95;;;6.40;95.60;;;;;;5060108;28;20040;-82
2020/12/02 07:45:38;;;;;;;30.33;15.27;;;6.40;95.60;;;;;;5071163;28;20037;-82
2020/12/02 07:48:12;;;;;;;33.72;14.65;;;6.40;95.60;;;;;;5055433;28;20041;-82
2020/12/02 07:50:43;;;;;;;36.08;14.15;;;6.40;95.70;;;;;;5053940;28;20043;-82
2020/12/02 07:53:25;;;;;;;46.10;17.75;;;6.40;95.70;;;;;;5053814;28;20036;-82
2020/12/02 07:55:52;;;;;;;33.60;14.18;;;6.40;95.70;;;;;;5068510;28;20036;-81
2020/12/02 07:58:34;;;;;;;30.83;11.88;;;6.40;95.80;;;;;;5052595;28;20055;-82
2020/12/02 08:01:32;;;;;;;38.00;15.95;;;6.50;95.80;;;;;;5071091;28;20593;-82
2020/12/02 08:04:21;;;;;;;37.55;14.80;;;6.50;95.70;;;;;;5036435;28;20075;-82
2020/12/02 08:07:11;;;;;;;38.30;14.88;;;6.50;95.70;;;;;;5054530;28;20045;-82
2020/12/02 08:09:47;;;;;;;36.63;15.57;;;6.50;95.60;;;;;;5069288;28;20040;-82
2020/12/02 08:12:31;;;;;;;37.08;16.10;;;6.50;95.60;;;;;;5037304;28;20029;-81
2020/12/02 08:15:05;;;;;;;35.35;16.65;;;6.50;95.60;;;;;;5054043;28;20507;-81
2020/12/02 08:17:33;;;;;;;38.15;15.57;;;6.50;95.60;;;;;;5070689;28;20036;-81
2020/12/02 08:20:19;;;;;;;36.83;16.20;;;6.50;95.60;;;;;;5071272;28;20056;-81
2020/12/02 08:22:51;;;;;;;37.10;13.98;;;6.50;95.60;;;;;;5049469;28;20387;-81
2020/12/02 08:25:20;;;;;;;36.90;15.15;;;6.50;95.60;;;;;;5069711;28;20426;-81
2020/12/02 08:27:51;;;;;;;40.88;16.55;;;6.50;95.60;;;;;;5054218;28;20455;-81
2020/12/02 08:30:24;;;;;;;28.15;12.57;;;6.50;95.60;;;;;;5037913;28;20700;-81
2020/12/02 08:32:54;;;;;;;32.35;14.35;;;6.50;95.60;;;;;;5054408;28;20032;-81
2020/12/02 08:35:37;;;;;;;35.90;15.02;;;6.50;95.60;;;;;;5053030;28;20048;-81
2020/12/02 08:38:04;;;;;;;42.53;15.18;;;6.60;95.60;;;;;;5071138;28;20395;-81
2020/12/02 08:40:41;;;;;;;34.58;13.32;;;6.60;95.60;;;;;;5037361;28;20032;-82
2020/12/02 08:43:18;;;;;;;38.08;14.90;;;6.60;95.60;;;;;;5037963;28;20043;-82
2020/12/02 08:46:09;;;;;;;39.30;14.23;;;6.60;95.60;;;;;;5036147;28;20522;-82
2020/12/02 08:48:36;;;;;;;34.45;15.55;;;6.60;95.60;;;;;;5051328;28;20110;-82
2020/12/02 08:51:06;;;;;;;36.28;14.10;;;6.60;95.60;;;;;;5070443;28;20040;-82
2020/12/02 08:53:33;;;;;;;33.03;11.88;;;6.70;95.50;;;;;;5053020;28;20503;-81
2020/12/02 08:56:00;;;;;;;31.10;13.50;;;6.70;95.50;;;;;;5069095;28;20131;-80
2020/12/02 08:58:26;;;;;;;28.10;13.70;;;6.70;95.50;;;;;;5053885;28;20036;-81
2020/12/02 09:00:53;;;;;;;32.08;13.48;;;6.70;95.50;;;;;;5037101;28;20044;-81
2020/12/02 09:03:24;;;;;;;26.10;11.93;;;6.70;95.50;;;;;;5068173;28;20040;-81
2020/12/02 09:05:51;;;;;;;36.50;14.45;;;6.80;95.40;;;;;;5051726;28;20059;-82
2020/12/02 09:08:19;;;;;;;27.08;12.70;;;6.70;95.40;;;;;;5053547;28;20470;-82
2020/12/02 09:10:47;;;;;;;27.77;11.55;;;6.70;95.40;;;;;;5053970;28;20040;-81
2020/12/02 09:13:14;;;;;;;27.17;13.02;;;6.80;95.40;;;;;;5053250;28;20036;-82
2020/12/02 09:15:42;;;;;;;31.67;14.48;;;6.80;95.40;;;;;;5036307;28;20376;-82
2020/12/02 09:18:09;;;;;;;28.45;13.38;;;6.80;95.40;;;;;;5070211;28;20047;-82
2020/12/02 09:20:39;;;;;;;27.80;12.60;;;6.80;95.40;;;;;;5069439;28;20044;-82
2020/12/02 09:23:06;;;;;;;29.85;13.60;;;6.80;95.30;;;;;;5040354;28;20484;-81
2020/12/02 09:25:33;;;;;;;28.80;12.93;;;6.80;95.30;;;;;;5042216;28;20033;-82
2020/12/02 09:27:59;;;;;;;24.80;11.70;;;6.80;95.30;;;;;;5053519;28;20131;-81
2020/12/02 09:30:26;;;;;;;31.85;13.38;;;6.80;95.30;;;;;;5053341;28;20028;-81
2020/12/02 09:32:52;;;;;;;26.50;12.98;;;6.90;95.30;;;;;;5026997;28;20033;-81
2020/12/02 09:35:20;;;;;;;22.20;12.25;;;6.90;95.30;;;;;;5051634;28;20045;-82
2020/12/02 09:37:48;;;;;;;26.70;13.00;;;6.90;95.30;;;;;;5067753;28;20040;-81
2020/12/02 09:40:15;;;;;;;22.85;12.40;;;6.90;95.30;;;;;;5034123;28;20508;-81
2020/12/02 09:42:56;;;;;;;26.27;13.20;;;6.90;95.30;;;;;;5050361;28;20052;-81
2020/12/02 09:45:41;;;;;;;28.00;13.23;;;6.90;95.30;;;;;;5041335;28;20048;-81
2020/12/02 09:48:15;;;;;;;24.90;12.80;;;6.90;95.30;;;;;;5066955;28;20043;-82
2020/12/02 09:50:42;;;;;;;26.90;13.68;;;7.00;95.30;;;;;;5069011;28;20392;-81
2020/12/02 09:53:27;;;;;;;22.70;12.57;;;7.00;95.20;;;;;;5036305;28;20055;-81
2020/12/02 09:55:54;;;;;;;38.78;22.10;;;7.00;95.20;;;;;;5054809;28;20032;-80
2020/12/02 09:58:23;;;;;;;39.70;23.55;;;7.00;95.40;;;;;;5069836;28;20044;-80
2020/12/02 10:01:00;;;;;;;27.10;15.93;;;7.00;95.20;;;;;;5052580;28;20407;-80
2020/12/02 10:03:55;;;;;;;23.65;13.98;;;7.10;95.20;;;;;;5069598;28;20044;-79
2020/12/02 10:06:56;;;;;;;23.80;14.25;;;7.10;95.20;;;;;;5052403;28;20044;-80
2020/12/02 10:09:48;;;;;;;19.63;12.27;;;7.10;95.10;;;;;;5068807;28;20531;-80
2020/12/02 10:12:39;;;;;;;24.30;13.02;;;7.10;95.10;;;;;;5070042;28;20028;-81
2020/12/02 10:15:21;;;;;;;19.65;11.63;;;7.10;95.10;;;;;;5034358;28;20039;-81
2020/12/02 10:17:58;;;;;;;26.00;13.30;;;7.10;95.10;;;;;;5052698;28;20047;-82
2020/12/02 10:20:42;;;;;;;22.63;11.43;;;7.10;95.10;;;;;;5052601;28;20056;-81
2020/12/02 10:23:24;;;;;;;22.77;12.27;;;7.10;95.10;;;;;;5035673;28;20035;-82
2020/12/02 10:26:28;;;;;;;21.63;12.73;;;7.10;95.00;;;;;;5033102;28;20055;-81
2020/12/02 10:29:30;;;;;;;28.33;14.65;;;7.10;94.90;;;;;;5070613;28;20028;-81
2020/12/02 10:32:03;;;;;;;22.17;12.27;;;7.00;94.90;;;;;;5049946;28;20044;-81
2020/12/02 10:34:36;;;;;;;26.90;12.13;;;7.00;94.90;;;;;;5069058;28;20044;-78
2020/12/02 10:37:12;;;;;;;31.73;15.60;;;7.00;94.90;;;;;;5053972;28;20033;-80
2020/12/02 10:39:39;;;;;;;32.78;16.23;;;7.00;94.90;;;;;;5056118;28;20040;-80
2020/12/02 10:42:20;;;;;;;27.35;12.68;;;7.00;94.90;;;;;;5056362;28;20368;-81
2020/12/02 10:45:08;;;;;;;30.15;14.75;;;7.00;94.90;;;;;;5054371;28;20498;-81
2020/12/02 10:47:40;;;;;;;29.55;12.98;;;7.00;94.80;;;;;;5073368;28;20364;-81
2020/12/02 10:50:08;;;;;;;27.73;14.57;;;7.10;94.90;;;;;;5056550;28;20043;-81
2020/12/02 10:52:35;;;;;;;30.58;13.80;;;7.10;94.90;;;;;;5056800;28;20407;-81
2020/12/02 10:55:02;;;;;;;32.72;13.77;;;7.10;94.90;;;;;;5054648;28;20056;-81
2020/12/02 10:57:30;;;;;;;30.30;13.48;;;7.20;94.90;;;;;;5057222;28;20395;-81
2020/12/02 10:59:58;;;;;;;32.03;14.25;;;7.20;94.90;;;;;;5040008;28;20043;-81
2020/12/02 11:02:31;;;;;;;30.95;15.40;;;7.20;95.00;;;;;;5063629;28;20051;-81
2020/12/02 11:04:58;;;;;;;34.65;15.93;;;7.30;94.90;;;;;;5072941;28;20058;-81
2020/12/02 11:07:51;;;;;;;27.48;12.88;;;7.20;94.90;;;;;;5072427;28;20040;-81
2020/12/02 11:10:28;;;;;;;39.40;15.95;;;7.20;94.90;;;;;;5039532;28;20039;-81
2020/12/02 11:13:20;;;;;;;44.28;19.00;;;7.20;94.90;;;;;;5072181;28;20045;-81
2020/12/02 11:15:58;;;;;;;42.58;19.38;;;7.20;94.80;;;;;;5070259;28;20043;-83
2020/12/02 11:18:36;;;;;;;36.15;16.17;;;7.20;94.70;;;;;;5056411;28;20498;-81
2020/12/02 11:21:26;;;;;;;26.95;12.00;;;7.20;94.80;;;;;;5055595;28;20918;-83
2020/12/02 11:24:01;;;;;;;39.08;16.17;;;7.20;94.80;;;;;;5054532;28;20068;-80
2020/12/02 11:26:32;;;;;;;40.00;16.17;;;7.20;94.80;;;;;;5072172;28;20048;-79
2020/12/02 11:29:02;;;;;;;34.75;15.45;;;7.20;94.90;;;;;;5055052;28;20040;-84
2020/12/02 11:31:57;;;;;;;32.15;14.07;;;7.30;94.90;;;;;;5055288;28;20033;-81
2020/12/02 11:34:42;;;;;;;34.63;14.02;;;7.30;94.90;;;;;;5054631;28;20434;-80
2020/12/02 11:37:21;;;;;;;39.60;14.93;;;7.30;94.90;;;;;;5062498;28;20033;-82
2020/12/02 11:39:47;;;;;;;53.17;18.08;;;7.20;94.80;;;;;;5072368;28;20048;-81
2020/12/02 11:42:36;;;;;;;42.95;18.75;;;7.20;94.80;;;;;;5057399;28;20032;-81
2020/12/02 11:45:15;;;;;;;40.25;15.82;;;7.20;94.80;;;;;;5068444;28;20044;-81
2020/12/02 11:48:01;;;;;;;43.47;16.35;;;7.20;94.80;;;;;;5069716;28;20383;-80
2020/12/02 11:50:51;;;;;;;41.40;15.45;;;7.20;94.80;;;;;;5070988;28;20027;-80
2020/12/02 11:53:40;;;;;;;43.92;16.80;;;7.20;94.80;;;;;;5071282;28;20028;-80
2020/12/02 11:56:29;;;;;;;37.47;16.45;;;7.20;95.10;;;;;;5070946;28;20055;-81
2020/12/02 11:59:04;;;;;;;44.30;17.05;;;7.30;94.80;;;;;;5054501;28;20047;-80
2020/12/02 12:01:53;;;;;;;42.92;17.10;;;7.30;94.90;;;;;;5054963;28;20040;-80
2020/12/02 12:04:33;;;;;;;41.55;15.68;;;7.30;94.90;;;;;;5068273;28;20040;-80
2020/12/02 12:07:07;;;;;;;40.85;16.55;;;7.30;94.90;;;;;;5071333;28;20040;-80
2020/12/02 12:09:56;;;;;;;37.80;16.17;;;7.30;94.90;;;;;;5071090;28;20048;-80
2020/12/02 12:12:46;;;;;;;37.92;15.40;;;7.30;94.90;;;;;;5070315;28;20024;-80
2020/12/02 12:15:32;;;;;;;35.40;14.50;;;7.30;94.90;;;;;;5062704;28;20060;-81
2020/12/02 12:18:04;;;;;;;33.80;14.75;;;7.40;94.90;;;;;;5053615;28;20032;-79
2020/12/02 12:20:34;;;;;;;30.17;13.02;;;7.40;94.90;;;;;;5055039;28;20036;-81
2020/12/02 12:23:16;;;;;;;33.65;14.52;;;7.40;94.90;;;;;;5071295;28;20045;-81
2020/12/02 12:25:43;;;;;;;29.73;13.02;;;7.40;94.90;;;;;;5050987;28;20031;-80
2020/12/02 12:28:23;;;;;;;33.35;14.68;;;7.40;94.90;;;;;;5031794;28;20029;-80
2020/12/02 12:30:50;;;;;;;40.17;14.23;;;7.40;94.90;;;;;;5064132;28;20033;-80
2020/12/02 12:33:36;;;;;;;34.67;14.65;;;7.40;94.90;;;;;;5047297;28;20040;-80
2020/12/02 12:36:11;;;;;;;34.28;15.10;;;7.40;94.80;;;;;;5045384;28;20041;-80
2020/12/02 12:38:43;;;;;;;31.23;14.00;;;7.40;94.80;;;;;;5064849;28;20056;-80
2020/12/02 12:41:24;;;;;;;34.92;13.55;;;7.40;94.80;;;;;;5048733;28;20403;-80
2020/12/02 12:43:56;;;;;;;29.77;12.18;;;7.40;94.80;;;;;;5063928;28;20051;-80
2020/12/02 12:46:34;;;;;;;35.90;13.88;;;7.40;94.80;;;;;;5051062;28;20043;-80
2020/12/02 12:49:03;;;;;;;33.85;14.13;;;7.50;94.80;;;;;;5047953;28;20495;-80
2020/12/02 12:51:31;;;;;;;33.53;14.27;;;7.40;94.80;;;;;;5065916;28;20435;-80
2020/12/02 12:54:01;;;;;;;37.80;15.68;;;7.50;94.80;;;;;;5064599;28;20044;-80
2020/12/02 12:56:30;;;;;;;40.88;16.05;;;7.40;94.70;;;;;;5067396;28;20048;-80
2020/12/02 12:58:56;;;;;;;32.28;14.27;;;7.40;94.70;;;;;;5032602;28;20043;-80
2020/12/02 13:01:23;;;;;;;42.20;16.52;;;7.40;94.80;;;;;;5065454;28;20044;-80
2020/12/02 13:03:51;;;;;;;38.72;16.83;;;7.40;94.70;;;;;;5031088;28;20044;-80
2020/12/02 13:06:45;;;;;;;42.20;16.40;;;7.40;94.70;;;;;;5048640;28;20398;-80
2020/12/02 13:09:49;;;;;;;39.33;16.80;;;7.40;94.70;;;;;;5066936;28;20056;-80
2020/12/02 13:12:24;;;;;;;45.08;17.08;;;7.40;94.70;;;;;;5033465;28;20516;-79